Time;durP1;ratioP1;P1;durP2;ratioP2;P2;SDS_P1;SDS_P2;PMS_P1;PMS_P2;Temp;Humidity;BMP_temperature;BMP_pressure;BME280_temperature;BME280_humidity;BME280_pressure;Samples;Min_cycle;Max_cycle;Signal;HPM_P1;HPM_P2
2022/10/19 00:01:22;;;;;;;9.80;5.82;;;13.30;99.90;;;13.55;74.73;102801.97;4897682;29;20048;-67
2022/10/19 00:03:53;;;;;;;7.82;5.47;;;13.30;99.90;;;13.39;74.85;102786.69;4897599;29;20128;-68
2022/10/19 00:06:25;;;;;;;8.60;5.85;;;13.20;99.90;;;13.49;74.77;102796.59;4897490;29;20053;-68
2022/10/19 00:08:55;;;;;;;4.93;4.50;;;13.10;99.90;;;13.45;74.09;102790.31;4897517;29;20551;-69
2022/10/19 00:11:24;;;;;;;6.00;4.57;;;13.10;99.90;;;13.34;73.77;102794.56;4897700;29;20450;-68
2022/10/19 00:13:55;;;;;;;4.32;4.00;;;13.00;99.90;;;12.53;73.45;102665.72;4900076;29;20477;-69
2022/10/19 00:16:27;;;;;;;5.13;4.68;;;12.90;99.90;;;13.12;74.07;102773.88;4901463;29;20083;-68
2022/10/19 00:18:57;;;;;;;6.60;5.47;;;12.80;99.90;;;13.01;74.41;102747.94;4901308;29;20079;-68
2022/10/19 00:21:27;;;;;;;14.15;7.97;;;12.80;99.90;;;13.36;75.54;102773.31;4901598;29;20075;-68
2022/10/19 00:23:55;;;;;;;18.70;9.43;;;13.00;99.90;;;13.56;75.98;102775.41;4900123;29;20091;-68
2022/10/19 00:26:24;;;;;;;19.63;9.63;;;13.10;99.90;;;13.64;76.59;102763.97;4901278;29;20052;-68
2022/10/19 00:28:54;;;;;;;15.73;9.45;;;13.30;99.90;;;13.76;76.63;102766.81;4899900;29;20049;-68
2022/10/19 00:31:25;;;;;;;17.87;9.50;;;13.40;99.90;;;13.83;76.58;102776.63;4901132;29;20127;-68
2022/10/19 00:33:53;;;;;;;;;;;13.50;99.90;;;13.86;76.48;102771.38;4901442;29;20127;-68
2022/10/19 00:36:25;;;;;;;22.05;9.45;;;13.60;99.90;;;13.95;76.37;102772.38;4901037;29;19923;-68
2022/10/19 00:38:54;;;;;;;15.40;8.77;;;13.70;99.90;;;13.96;76.32;102773.25;4901073;29;20051;-68
2022/10/19 00:41:27;;;;;;;13.70;8.73;;;13.70;99.90;;;14.03;76.33;102769.81;4901222;29;20053;-69
2022/10/19 00:43:59;;;;;;;18.02;8.70;;;13.80;99.90;;;14.08;76.48;102776.97;4900868;29;20124;-68
2022/10/19 00:46:31;;;;;;;14.98;8.40;;;13.80;99.90;;;14.11;76.23;102765.47;4900868;29;20100;-68
2022/10/19 00:49:04;;;;;;;19.98;9.73;;;13.80;99.90;;;13.34;76.22;102626.22;4900916;29;20047;-68
2022/10/19 00:51:41;;;;;;;17.45;10.18;;;13.90;99.90;;;14.17;75.97;102769.06;4900783;29;20088;-67
2022/10/19 00:54:10;;;;;;;19.52;11.27;;;13.90;99.90;;;14.25;75.78;102777.16;4900832;29;20061;-68
2022/10/19 00:56:43;;;;;;;20.15;11.48;;;14.00;99.90;;;14.15;75.55;102764.63;4900709;29;20418;-69
2022/10/19 00:59:13;;;;;;;18.73;10.38;;;13.90;99.90;;;14.22;75.63;102777.13;4900657;29;20040;-68
2022/10/19 01:01:44;;;;;;;15.73;10.23;;;14.00;99.90;;;14.16;75.60;102777.06;4899510;29;20143;-68
2022/10/19 01:04:13;;;;;;;20.42;9.93;;;13.90;99.90;;;14.19;75.64;102779.75;4899394;29;20417;-68
2022/10/19 01:06:42;;;;;;;15.05;9.32;;;13.90;99.90;;;14.16;75.65;102777.06;4900374;29;20056;-68
2022/10/19 01:09:10;;;;;;;18.25;9.00;;;13.90;99.90;;;14.08;75.47;102768.97;4900882;29;20127;-69
2022/10/19 01:11:47;;;;;;;15.10;8.35;;;13.90;99.90;;;14.18;75.39;102773.53;4900574;29;20110;-68
2022/10/19 01:14:34;;;;;;;13.55;7.78;;;13.90;99.90;;;14.17;75.19;102768.19;4900557;29;20481;-68
2022/10/19 01:17:11;;;;;;;14.63;7.88;;;13.90;99.90;;;14.17;75.19;102762.84;4900320;29;20052;-71
2022/10/19 01:20:32;;;;;;;13.10;8.13;;;13.90;99.90;;;14.13;75.47;102775.25;4900260;29;20045;-71
2022/10/19 01:23:44;;;;;;;18.17;7.78;;;13.80;99.90;;;14.14;75.38;102765.50;4876461;29;20075;-71
2022/10/19 01:26:32;;;;;;;19.45;7.75;;;13.80;99.90;;;14.09;75.30;102759.25;4899559;29;20075;-69
2022/10/19 01:29:11;;;;;;;12.93;7.05;;;13.80;99.90;;;14.13;75.61;102761.94;4900212;29;20052;-68
2022/10/19 01:31:47;;;;;;;18.55;7.32;;;13.80;99.90;;;14.21;74.99;102746.94;4900106;29;20041;-68
2022/10/19 01:34:21;;;;;;;15.00;7.57;;;13.90;99.90;;;14.00;75.00;102760.00;4899950;29;20044;-68
2022/10/19 01:36:58;;;;;;;18.23;7.93;;;13.70;99.90;;;13.89;75.22;102756.34;4900084;29;20076;-68
2022/10/19 01:39:37;;;;;;;19.65;8.15;;;13.70;99.90;;;13.91;75.58;102756.34;4899963;29;20055;-68
2022/10/19 01:42:13;;;;;;;16.23;7.97;;;13.60;99.90;;;13.96;75.35;102760.84;4899759;29;20063;-68
2022/10/19 01:44:47;;;;;;;16.13;7.85;;;13.70;99.90;;;13.94;75.42;102759.94;4899906;29;20059;-68
2022/10/19 01:47:22;;;;;;;13.27;7.55;;;13.70;99.90;;;13.87;75.57;102754.53;4900016;29;20052;-68
2022/10/19 01:49:56;;;;;;;16.85;7.63;;;13.60;99.90;;;13.86;75.59;102752.75;4899830;29;20124;-68
2022/10/19 01:52:26;;;;;;;18.58;7.70;;;13.60;99.90;;;13.85;75.83;102743.88;4899735;29;20050;-68
2022/10/19 01:54:57;;;;;;;;;;;13.60;99.90;;;13.83;75.65;102752.69;4898542;29;20057;-68
2022/10/19 01:57:28;;;;;;;;;;;13.60;99.90;;;13.79;75.83;102742.88;4899982;29;20014;-68
2022/10/19 01:59:58;;;;;;;15.25;7.55;;;13.60;99.90;;;13.78;75.97;102736.66;4899633;29;19923;-69
2022/10/19 02:02:28;;;;;;;16.38;8.13;;;13.60;99.90;;;13.85;76.02;102742.97;4899531;29;20052;-68
2022/10/19 02:04:58;;;;;;;16.10;8.18;;;13.60;99.90;;;13.83;76.18;102731.41;4899490;29;20053;-69
2022/10/19 02:07:27;;;;;;;14.43;8.57;;;13.60;99.90;;;13.83;76.63;102737.63;4898049;29;20526;-68
2022/10/19 02:09:56;;;;;;;18.77;9.27;;;13.50;99.90;;;13.67;76.81;102705.50;4898259;29;20048;-69
2022/10/19 02:12:26;;;;;;;16.75;9.30;;;13.50;99.90;;;13.82;76.92;102727.00;4899355;29;20415;-69
2022/10/19 02:14:59;;;;;;;15.55;9.30;;;13.50;99.90;;;13.87;76.86;102751.88;4899475;29;20048;-70
2022/10/19 02:17:33;;;;;;;16.98;10.20;;;13.60;99.90;;;13.82;77.11;102727.00;4899221;29;20055;-69
2022/10/19 02:20:03;;;;;;;16.85;10.45;;;13.60;99.90;;;13.78;77.33;102719.84;4899189;29;20052;-68
2022/10/19 02:22:32;;;;;;;15.85;10.00;;;13.50;99.90;;;13.67;77.59;102700.19;4899193;29;20068;-68
2022/10/19 02:25:02;;;;;;;16.27;10.52;;;13.50;99.90;;;13.74;78.11;102718.91;4899123;29;20052;-70
2022/10/19 02:27:30;;;;;;;18.80;10.57;;;13.50;99.90;;;13.84;78.18;102722.59;4899035;29;20048;-68
2022/10/19 02:29:59;;;;;;;19.67;10.25;;;13.50;99.90;;;13.83;78.30;102719.00;4898983;29;20055;-68
2022/10/19 02:32:28;;;;;;;15.18;10.20;;;13.60;99.90;;;13.80;78.24;102707.44;4899396;29;20055;-69
2022/10/19 02:34:57;;;;;;;17.40;10.63;;;13.50;99.90;;;13.77;78.27;102710.06;4899045;29;20058;-69
2022/10/19 02:37:25;;;;;;;19.73;11.85;;;13.50;99.90;;;13.69;78.71;102709.06;4898882;29;20037;-69
2022/10/19 02:39:53;;;;;;;16.90;11.38;;;13.40;99.90;;;13.50;79.02;102714.19;4898819;29;20048;-69
2022/10/19 02:42:32;;;;;;;20.17;12.57;;;13.30;99.90;;;13.29;79.69;102726.28;4898844;29;20051;-70
2022/10/19 02:45:09;;;;;;;21.08;12.40;;;13.10;99.90;;;12.99;80.77;102720.47;4897758;29;20404;-68
2022/10/19 02:47:45;;;;;;;20.75;12.57;;;12.90;99.90;;;13.14;81.27;102716.28;4898715;29;20068;-69
2022/10/19 02:50:14;;;;;;;19.83;12.25;;;12.80;99.90;;;12.93;81.43;102721.25;4898817;29;20140;-69
2022/10/19 02:52:42;;;;;;;21.13;13.02;;;12.80;99.90;;;12.96;82.04;102713.34;4898312;29;20505;-68
2022/10/19 02:55:11;;;;;;;23.52;12.57;;;12.70;99.90;;;13.11;81.97;102710.94;4898403;29;20045;-68
2022/10/19 02:57:39;;;;;;;20.65;13.05;;;12.80;99.90;;;13.15;81.85;102709.22;4898922;29;20048;-69
2022/10/19 03:00:10;;;;;;;18.10;12.73;;;12.90;99.90;;;13.07;81.49;102705.56;4898484;29;20072;-69
2022/10/19 03:02:39;;;;;;;18.73;12.10;;;12.90;99.90;;;13.05;81.94;102702.88;4898494;29;20568;-69
2022/10/19 03:05:10;;;;;;;19.35;12.73;;;12.80;99.90;;;13.10;81.59;102698.56;4898309;29;20071;-68
2022/10/19 03:07:40;;;;;;;18.48;13.27;;;12.80;99.90;;;13.06;81.72;102690.50;4898311;29;20044;-72
2022/10/19 03:10:09;;;;;;;17.90;13.30;;;12.80;99.90;;;13.06;81.29;102691.41;4898449;29;20049;-68
2022/10/19 03:12:38;;;;;;;17.02;12.40;;;12.80;99.90;;;13.13;81.36;102697.69;4898151;29;20040;-69
2022/10/19 03:15:08;;;;;;;16.27;12.82;;;12.90;99.90;;;13.10;81.28;102676.41;4898078;29;20388;-69
2022/10/19 03:17:36;;;;;;;20.10;12.82;;;12.90;99.90;;;13.14;80.95;102679.09;4898225;29;20148;-68
2022/10/19 03:20:08;;;;;;;19.42;13.18;;;13.00;99.90;;;13.16;80.81;102680.00;4898053;29;20123;-69
2022/10/19 03:22:36;;;;;;;18.58;13.07;;;12.90;99.90;;;13.16;80.49;102676.47;4898311;29;20464;-69
2022/10/19 03:25:05;;;;;;;15.55;12.98;;;12.90;99.90;;;13.20;80.47;102676.53;4896926;29;20456;-69
2022/10/19 03:27:34;;;;;;;15.27;12.10;;;13.00;99.90;;;13.21;80.32;102682.75;4898128;29;20072;-69
2022/10/19 03:30:03;;;;;;;16.67;11.73;;;13.00;99.90;;;13.19;80.16;102674.75;4896916;29;20487;-69
2022/10/19 03:32:31;;;;;;;15.27;11.57;;;13.00;99.90;;;13.23;79.93;102683.66;4897880;29;20040;-69
2022/10/19 03:35:02;;;;;;;14.23;11.55;;;13.00;99.90;;;13.17;79.83;102676.50;4897891;29;20049;-69
2022/10/19 03:37:32;;;;;;;20.13;10.85;;;12.90;99.90;;;13.13;79.89;102681.75;4896752;29;20143;-68
2022/10/19 03:40:00;;;;;;;16.08;11.18;;;12.90;99.90;;;13.15;79.98;102675.59;4897883;29;20510;-68
2022/10/19 03:42:29;;;;;;;12.88;10.82;;;12.90;99.90;;;13.11;79.95;102676.41;4897842;29;20045;-69
2022/10/19 03:44:57;;;;;;;14.65;10.88;;;12.90;99.90;;;13.07;79.73;102673.69;4898040;29;20049;-69
2022/10/19 03:47:26;;;;;;;13.82;10.82;;;12.90;99.90;;;13.13;79.46;102679.97;4897416;29;20056;-69
2022/10/19 03:49:54;;;;;;;14.57;10.82;;;12.90;99.90;;;13.13;79.75;102674.66;4897910;29;20124;-69
2022/10/19 03:52:22;;;;;;;14.20;10.57;;;12.90;99.90;;;13.16;79.40;102679.16;4897695;29;20044;-71
2022/10/19 03:54:52;;;;;;;16.10;10.77;;;12.90;99.90;;;13.06;79.30;102671.91;4897400;29;20131;-68
2022/10/19 03:57:20;;;;;;;14.50;10.43;;;12.90;99.90;;;13.04;79.32;102674.56;4897670;29;20044;-69
2022/10/19 03:59:49;;;;;;;15.45;10.05;;;12.80;99.90;;;12.89;79.12;102682.22;4897790;29;20049;-69
2022/10/19 04:02:17;;;;;;;15.35;11.23;;;12.70;99.90;;;12.84;79.41;102675.97;4897683;29;20045;-69
2022/10/19 04:04:45;;;;;;;12.95;10.20;;;12.60;99.90;;;12.66;79.69;102676.56;4897633;29;20050;-69
2022/10/19 04:07:14;;;;;;;16.83;10.57;;;12.40;99.90;;;12.47;80.26;102650.59;4897787;29;20076;-69
2022/10/19 04:09:42;;;;;;;11.57;10.40;;;12.30;99.90;;;12.68;80.63;102673.94;4897617;29;20045;-69
2022/10/19 04:12:12;;;;;;;14.02;10.20;;;12.40;99.90;;;12.64;80.60;102658.81;4897496;29;20080;-69
2022/10/19 04:14:40;;;;;;;13.07;9.90;;;12.30;99.90;;;12.65;80.38;102656.22;4897669;29;20045;-69
2022/10/19 04:17:25;;;;;;;11.40;9.68;;;12.40;99.90;;;12.51;80.00;102630.31;4896503;29;20060;-70
2022/10/19 04:19:53;;;;;;;12.02;9.38;;;12.40;99.90;;;12.56;80.33;102653.38;4897503;29;20388;-69
2022/10/19 04:22:22;;;;;;;9.73;8.68;;;12.30;99.90;;;12.59;80.23;102653.47;4897415;29;20040;-69
2022/10/19 04:24:50;;;;;;;10.65;8.60;;;12.30;99.90;;;12.53;79.95;102660.41;4897520;29;20048;-70
2022/10/19 04:27:20;;;;;;;12.80;9.35;;;12.30;99.90;;;12.37;80.11;102666.34;4897757;29;20045;-69
2022/10/19 04:29:48;;;;;;;13.85;7.90;;;12.20;99.90;;;12.15;80.75;102675.69;4896232;29;20491;-68
2022/10/19 04:32:17;;;;;;;13.70;7.95;;;12.00;99.90;;;11.93;81.44;102669.94;4896344;29;20143;-69
2022/10/19 04:34:45;;;;;;;10.38;8.73;;;11.80;99.90;;;11.80;82.24;102674.13;4897413;29;20052;-69
2022/10/19 04:37:13;;;;;;;10.95;8.20;;;11.60;99.90;;;11.81;82.62;102683.00;4895966;29;20041;-70
2022/10/19 04:39:43;;;;;;;11.52;8.75;;;11.60;99.90;;;11.82;82.76;102675.06;4897694;29;20055;-70
2022/10/19 04:42:11;;;;;;;12.03;8.63;;;11.60;99.90;;;11.94;82.64;102685.00;4896223;29;20053;-71
2022/10/19 04:44:41;;;;;;;13.57;8.57;;;11.60;99.90;;;11.95;82.48;102682.38;4897327;29;20044;-70
2022/10/19 04:47:09;;;;;;;11.68;8.05;;;11.70;99.90;;;11.98;82.54;102684.22;4897341;29;20112;-70
2022/10/19 04:49:38;;;;;;;11.85;8.68;;;11.70;99.90;;;11.82;82.57;102688.31;4897532;29;20063;-70
2022/10/19 04:52:06;;;;;;;10.98;8.23;;;11.60;99.90;;;11.69;82.87;102683.66;4897134;29;20160;-70
2022/10/19 04:54:34;;;;;;;10.30;8.40;;;11.40;99.90;;;11.77;82.74;102688.22;4897342;29;20056;-70
2022/10/19 04:57:03;;;;;;;9.90;8.88;;;11.50;99.90;;;11.72;83.00;102695.19;4896983;29;20060;-70
2022/10/19 04:59:32;;;;;;;14.55;8.90;;;11.40;99.90;;;11.76;82.93;102696.16;4896583;29;20463;-70
2022/10/19 05:02:02;;;;;;;10.55;7.70;;;11.40;99.90;;;11.82;82.92;102698.03;4900589;29;20037;-70
2022/10/19 05:04:30;;;;;;;12.90;8.47;;;11.50;99.90;;;11.87;82.66;102691.03;4900518;29;20055;-70
2022/10/19 05:06:58;;;;;;;11.70;8.45;;;11.60;99.90;;;12.02;82.34;102691.38;4900801;29;20296;-70
2022/10/19 05:09:27;;;;;;;16.25;8.40;;;11.70;99.90;;;11.99;82.28;102678.03;4899316;29;20537;-70
2022/10/19 05:11:55;;;;;;;15.65;7.95;;;11.70;99.90;;;12.04;81.94;102677.25;4900414;29;20033;-70
2022/10/19 05:14:24;;;;;;;13.70;7.97;;;11.80;99.90;;;11.96;81.82;102677.97;4900337;29;20076;-72
2022/10/19 05:16:52;;;;;;;10.68;8.32;;;11.70;99.90;;;12.08;81.59;102684.38;4898960;29;20045;-70
2022/10/19 05:19:22;;;;;;;9.43;7.95;;;11.80;99.90;;;12.15;81.45;102693.38;4900266;29;20045;-70
2022/10/19 05:21:50;;;;;;;10.95;8.23;;;11.80;99.90;;;12.14;81.24;102688.91;4900347;29;20123;-70
2022/10/19 05:24:18;;;;;;;10.40;8.25;;;11.90;99.90;;;12.14;80.90;102673.00;4900286;29;20052;-70
2022/10/19 05:26:47;;;;;;;15.13;8.63;;;12.00;99.90;;;12.21;80.59;102662.56;4900101;29;20047;-70
2022/10/19 05:29:15;;;;;;;13.93;8.63;;;12.00;99.90;;;12.31;80.50;102664.47;4900038;29;20067;-71
2022/10/19 05:31:43;;;;;;;16.33;8.52;;;12.10;99.90;;;12.24;80.30;102659.03;4900208;29;20056;-70
2022/10/19 05:34:11;;;;;;;13.75;8.27;;;12.00;99.90;;;12.20;80.50;102671.34;4900062;29;20522;-70
2022/10/19 05:36:41;;;;;;;13.50;8.82;;;12.00;99.90;;;12.26;80.30;102667.91;4900076;29;20055;-70
2022/10/19 05:39:14;;;;;;;13.73;8.68;;;12.00;99.90;;;12.25;80.32;102663.50;4898803;29;20057;-70
2022/10/19 05:41:44;;;;;;;16.00;8.50;;;12.00;99.90;;;12.27;80.27;102664.41;4899883;29;20048;-70
2022/10/19 05:44:16;;;;;;;13.98;7.82;;;12.10;99.90;;;12.28;79.98;102652.91;4899908;29;20081;-70
2022/10/19 05:46:45;;;;;;;13.68;8.10;;;12.10;99.90;;;12.18;79.94;102630.63;4899846;29;20048;-70
2022/10/19 05:49:14;;;;;;;13.40;7.53;;;12.10;99.90;;;12.36;79.72;102661.91;4899948;29;20530;-70
2022/10/19 05:51:44;;;;;;;16.50;7.80;;;12.10;99.90;;;12.37;79.58;102645.09;4898473;29;20087;-70
2022/10/19 05:54:13;;;;;;;9.32;6.97;;;12.10;99.90;;;12.32;79.27;102652.09;4899808;29;20140;-71
2022/10/19 05:56:43;;;;;;;14.50;7.90;;;12.10;99.90;;;12.03;79.25;102609.16;4899535;29;20080;-71
2022/10/19 05:59:17;;;;;;;12.47;7.40;;;12.10;99.90;;;12.12;79.81;102651.75;4899458;29;20809;-70
2022/10/19 06:01:46;;;;;;;11.10;6.88;;;12.00;99.90;;;12.18;79.96;102629.75;4898631;29;20132;-70
2022/10/19 06:04:15;;;;;;;13.90;7.72;;;12.00;99.90;;;12.21;80.00;102627.16;4898213;29;20517;-70
2022/10/19 06:06:46;;;;;;;14.50;7.20;;;12.00;99.90;;;12.16;80.04;102627.06;4899277;29;20067;-70
2022/10/19 06:09:14;;;;;;;9.32;6.75;;;11.90;99.90;;;12.10;79.95;102626.97;4899265;29;20124;-70
2022/10/19 06:11:43;;;;;;;14.02;7.18;;;11.90;99.90;;;11.95;80.19;102631.09;4898787;29;20516;-70
2022/10/19 06:14:14;;;;;;;13.57;7.20;;;11.80;99.90;;;12.02;80.70;102627.72;4899092;29;20043;-71
2022/10/19 06:16:44;;;;;;;13.63;7.82;;;11.80;99.90;;;12.00;80.70;102632.97;4898048;29;20052;-70
2022/10/19 06:19:13;;;;;;;14.02;7.50;;;11.80;99.90;;;11.59;81.10;102613.59;4899467;29;20044;-69
2022/10/19 06:21:45;;;;;;;12.18;7.43;;;11.60;99.90;;;11.58;81.54;102603.88;4899196;29;20574;-70
2022/10/19 06:24:13;;;;;;;11.43;7.63;;;11.50;99.90;;;11.65;82.13;102616.41;4899203;29;20084;-70
2022/10/19 06:26:42;;;;;;;14.02;8.10;;;11.40;99.90;;;11.64;82.44;102633.16;4898968;29;20044;-70
2022/10/19 06:29:10;;;;;;;16.13;8.18;;;11.40;99.90;;;11.43;82.69;102639.78;4898921;29;20047;-70
2022/10/19 06:31:39;;;;;;;13.27;7.82;;;11.30;99.90;;;11.36;83.47;102636.09;4898929;29;20059;-70
2022/10/19 06:34:07;;;;;;;13.75;7.18;;;11.20;99.90;;;10.85;83.76;102529.09;4898875;29;20047;-70
2022/10/19 06:36:36;;;;;;;11.70;7.28;;;11.20;99.90;;;11.68;83.72;102640.34;4898972;29;20056;-70
2022/10/19 06:39:05;;;;;;;14.00;6.88;;;11.30;99.90;;;11.65;83.37;102645.56;4898773;29;20048;-70
2022/10/19 06:41:34;;;;;;;14.77;7.40;;;11.40;99.90;;;11.50;83.43;102637.28;4898686;29;20123;-69
2022/10/19 06:44:18;;;;;;;11.32;7.13;;;11.40;99.90;;;11.89;83.38;102652.19;4898694;29;20052;-70
2022/10/19 06:46:47;;;;;;;13.20;6.68;;;11.60;99.90;;;12.05;82.53;102651.63;4899026;29;20052;-70
2022/10/19 06:49:15;;;;;;;11.63;6.65;;;11.90;99.90;;;12.32;82.08;102650.34;4898965;29;20048;-70
2022/10/19 06:51:43;;;;;;;10.15;5.90;;;12.10;99.90;;;12.06;81.48;102646.34;4897453;29;20587;-69
2022/10/19 06:54:13;;;;;;;16.25;7.30;;;12.00;99.90;;;12.28;81.43;102644.97;4897294;29;20064;-70
2022/10/19 06:56:41;;;;;;;9.77;6.72;;;12.10;99.90;;;12.33;80.59;102649.47;4897319;29;20491;-70
2022/10/19 06:59:12;;;;;;;10.57;6.75;;;12.10;99.90;;;12.08;81.10;102623.38;4898317;29;20044;-71
2022/10/19 07:01:42;;;;;;;12.10;6.75;;;12.10;99.90;;;11.85;80.94;102528.38;4898135;29;20561;-69
2022/10/19 07:04:10;;;;;;;13.10;6.10;;;12.20;99.90;;;12.81;80.17;102638.75;4898369;29;20059;-66
2022/10/19 07:06:38;;;;;;;12.95;6.20;;;12.50;99.90;;;13.02;78.77;102632.84;4898364;29;20100;-66
2022/10/19 07:09:07;;;;;;;14.05;6.60;;;12.80;99.90;;;13.28;77.69;102637.66;4898300;29;20040;-67
2022/10/19 07:11:37;;;;;;;9.45;6.15;;;13.10;99.90;;;13.37;77.75;102637.81;4898212;29;20128;-68
2022/10/19 07:14:12;;;;;;;11.50;6.60;;;13.10;99.90;;;13.14;77.07;102636.56;4898288;29;20132;-68
2022/10/19 07:16:41;;;;;;;13.05;6.00;;;13.10;99.90;;;13.37;76.98;102643.13;4898106;29;20041;-67
2022/10/19 07:19:10;;;;;;;13.15;5.88;;;13.10;99.90;;;13.10;76.39;102612.63;4898054;29;20066;-69
2022/10/19 07:21:40;;;;;;;10.43;5.82;;;13.10;99.90;;;13.32;76.49;102646.56;4897865;29;20484;-70
2022/10/19 07:24:09;;;;;;;10.65;6.38;;;13.10;99.90;;;13.39;76.64;102651.97;4897220;29;20067;-67
2022/10/19 07:26:38;;;;;;;13.02;6.45;;;13.20;99.90;;;13.36;75.99;102620.06;4898057;29;20048;-67
2022/10/19 07:29:07;;;;;;;11.57;6.80;;;13.30;99.90;;;13.45;76.40;102640.56;4897966;29;20053;-68
2022/10/19 07:31:35;;;;;;;11.18;6.15;;;13.20;99.90;;;13.68;75.69;102647.03;4897720;29;20053;-67
2022/10/19 07:34:05;;;;;;;14.75;6.10;;;13.40;99.90;;;13.89;75.49;102649.03;4898149;29;20415;-66
2022/10/19 07:36:35;;;;;;;12.03;5.90;;;13.60;99.90;;;14.10;74.66;102643.91;4898047;29;20139;-66
2022/10/19 07:39:07;;;;;;;9.65;5.30;;;13.90;99.90;;;14.53;74.29;102640.78;4897713;29;20320;-69
2022/10/19 07:41:35;;;;;;;15.25;6.65;;;14.20;99.90;;;14.82;72.28;102628.56;4898097;29;20455;-68
2022/10/19 07:44:05;;;;;;;12.80;5.68;;;14.60;99.90;;;14.94;71.66;102641.06;4896353;29;20048;-68
2022/10/19 07:46:36;;;;;;;9.25;5.00;;;14.70;99.90;;;14.98;71.54;102635.75;4897778;29;20403;-70
2022/10/19 07:49:08;;;;;;;7.93;5.45;;;14.80;99.90;;;15.31;70.06;102645.72;4897413;29;20051;-67
2022/10/19 07:51:37;;;;;;;11.68;5.13;;;15.10;99.90;;;15.60;70.57;102656.53;4897552;29;20051;-67
2022/10/19 07:54:05;;;;;;;7.80;5.40;;;15.30;99.90;;;16.14;69.11;102633.53;4896257;29;20108;-66
2022/10/19 07:56:34;;;;;;;12.23;5.13;;;15.80;99.90;;;16.15;67.36;102623.75;4897561;29;20153;-68
2022/10/19 07:59:04;;;;;;;10.73;5.75;;;16.00;99.90;;;15.79;67.92;102597.00;4897413;29;20045;-68
2022/10/19 08:01:35;;;;;;;10.93;5.15;;;15.80;99.90;;;16.49;67.34;102612.19;4897493;29;20466;-68
2022/10/19 08:04:04;;;;;;;10.02;5.03;;;16.20;99.90;;;16.69;65.76;102614.84;4897771;29;20054;-69
2022/10/19 08:06:52;;;;;;;13.23;5.43;;;16.40;99.90;;;16.89;65.33;102600.56;4896198;29;20062;-69
2022/10/19 08:09:21;;;;;;;7.32;4.90;;;16.60;99.90;;;16.99;64.92;102604.97;4896620;29;20608;-68
2022/10/19 08:12:09;;;;;;;7.03;4.72;;;16.80;99.90;;;17.29;63.98;102601.31;4897433;29;20037;-68
2022/10/19 08:14:44;;;;;;;12.25;4.50;;;17.10;99.90;;;16.80;63.89;102605.91;4897547;29;20049;-68
2022/10/19 08:17:15;;;;;;;12.13;4.87;;;16.80;99.90;;;15.78;66.77;102587.19;4897513;29;20565;-67
2022/10/19 08:19:44;;;;;;;11.25;4.63;;;16.00;99.90;;;16.26;67.41;102571.22;4897423;29;20041;-62
2022/10/19 08:22:12;;;;;;;10.50;4.80;;;16.10;99.90;;;16.75;66.27;102588.09;4896131;29;20041;-62
2022/10/19 08:24:40;;;;;;;12.10;4.95;;;16.50;99.90;;;17.10;65.10;102591.56;4897239;29;20058;-62
2022/10/19 08:27:09;;;;;;;12.35;4.85;;;16.80;99.90;;;16.39;64.85;102458.16;4897309;29;20131;-62
2022/10/19 08:29:37;;;;;;;12.45;4.70;;;16.90;99.90;;;15.73;68.40;102605.00;4897488;29;20044;-69
2022/10/19 08:32:07;;;;;;;11.00;5.68;;;15.80;99.90;;;15.71;70.21;102582.75;4897420;29;20053;-61
2022/10/19 08:34:38;;;;;;;9.55;5.00;;;15.60;99.90;;;16.73;68.69;102604.16;4899525;29;20072;-61
2022/10/19 08:37:07;;;;;;;10.80;4.95;;;16.20;99.90;;;16.06;68.24;102599.72;4900984;29;20044;-61
2022/10/19 08:39:55;;;;;;;12.15;5.10;;;16.00;99.90;;;16.24;69.39;102589.03;4901048;29;20052;-61
2022/10/19 08:42:29;;;;;;;18.50;5.53;;;16.00;99.90;;;15.37;72.10;102598.63;4900882;29;20045;-61
2022/10/19 08:45:19;;;;;;;13.25;5.07;;;15.30;99.90;;;15.47;72.10;102604.00;4901063;29;20048;-61
2022/10/19 08:47:59;;;;;;;10.68;4.78;;;15.20;99.90;;;15.76;70.79;102604.97;4900817;29;20463;-61
2022/10/19 08:50:34;;;;;;;8.93;4.15;;;15.50;99.90;;;15.38;72.74;102597.75;4900754;29;20099;-61
2022/10/19 08:53:06;;;;;;;8.02;4.18;;;15.10;99.90;;;15.93;71.70;102595.25;4900763;29;20049;-61
2022/10/19 08:55:52;;;;;;;9.05;4.22;;;15.50;99.90;;;16.01;70.24;102597.03;4900958;29;20049;-61
2022/10/19 08:58:35;;;;;;;8.95;3.67;;;15.80;99.90;;;15.57;70.90;102565.81;4900416;29;20047;-62
2022/10/19 09:01:14;;;;;;;8.32;4.20;;;15.60;99.90;;;15.95;72.02;102599.69;4900700;29;20143;-67
2022/10/19 09:03:50;;;;;;;8.68;4.13;;;15.60;99.90;;;15.72;70.45;102555.16;4899346;29;20052;-66
2022/10/19 09:06:29;;;;;;;11.13;4.18;;;15.60;99.90;;;15.47;71.41;102617.34;4899283;29;20586;-64
2022/10/19 09:08:58;;;;;;;10.80;4.28;;;15.30;99.90;;;15.30;71.69;102594.16;4899516;29;20120;-63
2022/10/19 09:11:35;;;;;;;8.27;4.47;;;15.10;99.90;;;15.56;71.93;102604.06;4899250;29;20062;-63
2022/10/19 09:14:13;;;;;;;6.90;4.13;;;15.30;99.90;;;15.77;71.95;102604.13;4900419;29;20060;-63
2022/10/19 09:16:42;;;;;;;7.18;3.85;;;15.50;99.90;;;15.50;70.78;102612.94;4900311;29;20139;-63
2022/10/19 09:19:24;;;;;;;11.05;4.47;;;15.40;99.90;;;14.96;73.23;102615.34;4900396;29;20041;-63
2022/10/19 09:21:57;;;;;;;11.80;4.32;;;14.90;99.90;;;14.65;74.63;102603.59;4899033;29;20052;-63
2022/10/19 09:24:37;;;;;;;9.23;4.07;;;14.60;99.90;;;14.21;76.61;102573.03;4900301;29;20052;-62
2022/10/19 09:27:13;;;;;;;6.45;4.35;;;14.20;99.90;;;14.46;75.28;102564.38;4899059;29;20147;-63
2022/10/19 09:29:48;;;;;;;12.93;4.50;;;14.30;99.90;;;13.79;77.46;102503.50;4900615;29;20051;-62
2022/10/19 09:32:22;;;;;;;11.73;4.45;;;14.00;99.90;;;14.64;76.71;102591.13;4900061;29;20123;-62
2022/10/19 09:34:54;;;;;;;9.35;4.10;;;14.30;99.90;;;14.21;76.22;102586.34;4900000;29;20068;-63
2022/10/19 09:37:24;;;;;;;9.07;3.70;;;14.00;99.90;;;14.05;77.96;102584.44;4900049;29;20054;-62
2022/10/19 09:39:54;;;;;;;10.27;4.20;;;13.80;99.90;;;14.51;77.99;102569.75;4899813;29;20129;-62
2022/10/19 09:42:29;;;;;;;11.13;3.67;;;14.10;99.90;;;14.72;75.80;102557.47;4899841;29;20092;-63
2022/10/19 09:45:00;;;;;;;7.30;3.95;;;14.40;99.90;;;14.33;75.81;102568.75;4899503;29;20128;-62
2022/10/19 09:47:37;;;;;;;8.93;3.75;;;14.30;99.90;;;14.46;77.95;102557.28;4899572;29;20402;-62
2022/10/19 09:50:15;;;;;;;7.22;3.60;;;14.20;99.90;;;14.68;76.38;102555.66;4898482;29;20087;-62
2022/10/19 09:52:45;;;;;;;8.45;3.75;;;14.30;99.90;;;14.43;75.70;102556.38;4899536;29;20048;-62
2022/10/19 09:55:29;;;;;;;13.23;3.85;;;14.30;99.90;;;14.54;76.74;102548.47;4898091;29;20063;-62
2022/10/19 09:58:05;;;;;;;11.30;4.38;;;14.30;99.90;;;14.22;76.66;102533.13;4899756;29;20044;-63
2022/10/19 10:00:41;;;;;;;9.60;4.10;;;14.10;99.90;;;13.89;78.29;102516.91;4899573;29;20052;-62
2022/10/19 10:03:28;;;;;;;12.82;4.18;;;13.80;99.90;;;14.06;79.11;102519.69;4899590;29;20119;-69
2022/10/19 10:06:02;;;;;;;10.10;4.10;;;13.70;99.90;;;14.20;77.57;102507.38;4899609;29;20129;-71
2022/10/19 10:08:33;;;;;;;10.63;4.07;;;14.00;99.90;;;14.01;77.83;102527.66;4899384;29;20067;-71
2022/10/19 10:11:10;;;;;;;8.88;3.50;;;13.80;99.90;;;14.27;78.24;102517.19;4899363;29;20049;-71
2022/10/19 10:13:41;;;;;;;15.00;4.25;;;13.90;99.90;;;13.93;77.36;102488.53;4899567;29;20070;-68
2022/10/19 10:16:14;;;;;;;6.05;3.50;;;13.90;99.90;;;13.89;77.14;102492.97;4899333;29;20059;-69
2022/10/19 10:18:54;;;;;;;12.48;4.40;;;13.80;99.90;;;13.86;77.47;102514.19;4899501;29;20477;-70
2022/10/19 10:21:26;;;;;;;7.40;3.90;;;13.60;99.90;;;13.98;78.42;102489.47;4897925;29;20083;-69
2022/10/19 10:24:05;;;;;;;8.52;3.63;;;13.70;99.90;;;14.36;78.11;102498.66;4899352;29;20047;-69
2022/10/19 10:26:40;;;;;;;11.68;4.38;;;13.90;99.90;;;14.76;77.55;102483.75;4899120;29;20100;-67